KAGS

Augusta Regional at Bush Field Airport

Augusta, Georgia, USA
KAGS 230914Z 2309/2406 11013KT 6SM -RA OVC015 WS015/12045KT FM231500 10014G22KT 3SM -RA BR OVC012 TEMPO 2315/2319 2SM SHRA BKN007 FM232300 09012G22KT 4SM -RA BR OVC015
Issued Valid From Valid To
Apr-23 @ 09:14 UTC
(12 minutes ago)
Apr-23 @ 09:00 UTC
(26 minutes ago)
Apr-24 @ 06:00 UTC
(in 21 hours)
Apr-23 @ 09:00 to Apr-23 @ 15:00
KAGS 230914Z 2309/2406 11013KT 6SM -RA OVC015 WS015/12045KT
Wind Visibility Clouds Conditions
110° at 13 knots
 Wind shear 1,500' AGL from 120° at 45 knots
6 miles
  • Overcast at 1,500' AGL
  • Light Rain
Temporary Apr-23 @ 15:00 to Apr-23 @ 19:00
TEMPO 2315/2319 2SM SHRA BKN007
Visibility Clouds Conditions
2 miles
  • Broken at 700' AGL
  • Rain
From Apr-23 @ 15:00 to Apr-23 @ 23:00
FM231500 10014G22KT 3SM -RA BR OVC012
Wind Visibility Clouds Conditions
100° at 14 knots
 Gusting to 22 knots
3 miles
  • Overcast at 1,200' AGL
  • Light Rain
  • Mist
From Apr-23 @ 23:00 to Apr-24 @ 06:00
FM232300 09012G22KT 4SM -RA BR OVC015
Wind Visibility Clouds Conditions
90° at 12 knots
 Gusting to 22 knots
4 miles
  • Overcast at 1,500' AGL
  • Light Rain
  • Mist
KAGS 230914Z 2309/2406 11013KT 6SM -RA OVC015 WS015/12045KT FM231500 10014G22KT 3SM -RA BR OVC012 TEMPO 2315/2319 2SM SHRA BKN007 FM232300 09012G22KT 4SM -RA BR OVC015
Issued Apr-23 @ 09:14 UTC
(12 minutes ago)
Valid From Apr-23 @ 09:00 UTC
(26 minutes ago)
Valid To Apr-24 @ 06:00 UTC
(in 21 hours)
Apr-23 @ 09:00 - Apr-23 @ 15:00
Wind Visibility
110° at 13 knots 6 miles
Clouds
  • Overcast at 1,500' AGL
Conditions
  • Light Rain
Temporary Apr-23 @ 15:00 - Apr-23 @ 19:00
Clouds
  • Broken at 700' AGL
Conditions
  • Rain
From Apr-23 @ 15:00 - Apr-23 @ 23:00
Wind Visibility
100° at 14 knots
 Gusting to 22 knots
3 miles
Clouds
  • Overcast at 1,200' AGL
Conditions
  • Light Rain
  • Mist
From Apr-23 @ 23:00 - Apr-24 @ 06:00
Wind Visibility
90° at 12 knots
 Gusting to 22 knots
4 miles
Clouds
  • Overcast at 1,500' AGL
Conditions
  • Light Rain
  • Mist